Airfield :
LOGIN :

Register | Disclaimer

   EN    FR    IT 

 










Legend :    VFR   Marginal VFR   IFR   Intensive IFR   Very Intensive IFR
Visi :
Ceiling :
>= 8 km
>= 3000ft
5 to 8 km
1000 to 3000 ft
1500m to 5 km
500 to 1000 ft
800 to 1500m
200 to 500 ft
< 800m
< 200 ft
Symbols :   Thunderstorms  Fog  Heavy snow  Heavy precipitations  Wind > 20 kt
SIGMETs :     Misc.  Thunderstorms  Icing  Turbulence  Mountain Waves  Volcanic Ashes







- Airport Elevation : 147 ft
- IATA code : DUS


EDDL - Düsseldorf Int.

CURRENT METAR :
  • 240820Z 21006KT 180V250 CAVOK 19/08 Q1015 NOSIG

EXPIRED METARs :
  • 240750Z 19006KT 160V240 9999 FEW030 19/08 Q1015 NOSIG
  • 240720Z 17006KT 9999 FEW030 18/08 Q1015 BECMG 23006KT
  • 240650Z 16005KT 120V200 9999 FEW030 17/08 Q1015 BECMG 22006KT
  • 240620Z 16005KT 130V190 9999 FEW028 16/08 Q1015 BECMG 22006KT
  • 240550Z 17005KT 120V220 9999 FEW025 15/08 Q1015 BECMG 22006KT

TAF TAF EDDL
Valid from the 24 at 06:00 until the 25 at 12:00 UTC


240500Z 2406/2512 14006KT CAVOK
BECMG 2406/2409 20007KT
BECMG 2409/2412 26008KT
BECMG 2415/2418 32005KT
No reported NOTAMs for that airfield.



MET'MAP, your aeronautical weather chart ! - Copyright ORBIFLY December 2007 - Disclaimer

ORBIFLY MET'MAP TEAM :

Programming & Development : Alexandra Zaïnal
Concept & Development : Baudouin d'Aumeries
Co-Development & Prog : Marc-Olivier Méhu
Technical & hardware support : Manuel Goepfert

Contact : metmap@orbifly.com




SOURCES & CREDITS :

   NOAA